Time;durP1;ratioP1;P1;durP2;ratioP2;P2;SDS_P1;SDS_P2;PMS_P1;PMS_P2;Temp;Humidity;BMP_temperature;BMP_pressure;BME280_temperature;BME280_humidity;BME280_pressure;Samples;Min_cycle;Max_cycle;Signal;HPM_P1;HPM_P2
2022/05/24 00:00:53;;;;;;;0.40;0.20;;;;;;;17.54;100.00;99024.97;4938090;29;20514;-55
2022/05/24 00:03:20;;;;;;;0.93;0.93;;;;;;;17.62;100.00;99019.88;4937921;29;20555;-55
2022/05/24 00:05:48;;;;;;;0.50;0.47;;;;;;;17.61;100.00;99012.78;4938123;29;20452;-55
2022/05/24 00:08:15;;;;;;;1.00;0.93;;;;;;;17.50;100.00;99015.44;4937951;29;20530;-55
2022/05/24 00:10:42;;;;;;;0.50;0.50;;;;;;;17.40;100.00;99023.34;4968081;28;20452;-55
2022/05/24 00:13:10;;;;;;;0.40;0.20;;;;;;;17.51;100.00;99027.03;4937547;29;20503;-55
2022/05/24 00:15:36;;;;;;;0.40;0.20;;;;;;;17.57;100.00;99024.75;4937885;29;20460;-55
2022/05/24 00:18:10;;;;;;;0.50;0.30;;;;;;;17.32;100.00;99025.78;4937597;29;20989;-55
2022/05/24 00:20:45;;;;;;;0.40;0.20;;;;;;;17.28;100.00;99034.19;4946261;29;20435;-55
2022/05/24 00:23:13;;;;;;;0.40;0.20;;;;;;;17.48;100.00;99034.38;4939063;29;20542;-55
2022/05/24 00:25:43;;;;;;;0.40;0.20;;;;;;;17.55;100.00;99026.72;4937346;28;20460;-55
2022/05/24 00:28:10;;;;;;;0.40;0.30;;;;;;;17.54;100.00;99022.28;4937422;29;20488;-55
2022/05/24 00:30:37;;;;;;;0.70;0.40;;;;;;;17.57;100.00;99015.84;4937025;29;21036;-55
2022/05/24 00:33:04;;;;;;;0.40;0.30;;;;;;;17.65;100.00;99024.13;4937704;29;20488;-55
2022/05/24 00:35:31;;;;;;;0.40;0.20;;;;;;;17.52;100.00;99023.38;4937403;29;20456;-54
2022/05/24 00:37:58;;;;;;;0.40;0.20;;;;;;;17.44;100.00;99013.25;4936898;29;20510;-55
2022/05/24 00:40:43;;;;;;;0.40;0.20;;;;;;;17.53;100.00;99011.66;4937243;29;20879;-55
2022/05/24 00:43:42;;;;;;;0.40;0.40;;;;;;;17.58;100.00;99014.84;4937072;29;21016;-55
2022/05/24 00:46:17;;;;;;;0.40;0.20;;;;;;;17.62;100.00;99011.81;4935682;28;21009;-55
2022/05/24 00:49:14;;;;;;;0.40;0.20;;;;;;;17.60;100.00;99023.66;4937263;29;20502;-55
2022/05/24 00:51:51;;;;;;;0.40;0.30;;;;;;;17.43;100.00;99015.06;4936930;29;20507;-55
2022/05/24 00:54:17;;;;;;;0.40;0.30;;;;;;;17.52;100.00;99020.69;4937345;29;20485;-55
2022/05/24 00:56:49;;;;;;;0.40;0.20;;;;;;;17.47;100.00;99021.91;4936874;29;20949;-55
2022/05/24 00:59:23;;;;;;;0.40;0.20;;;;;;;17.47;100.00;99029.13;4936839;29;20515;-55
2022/05/24 01:01:50;;;;;;;0.40;0.20;;;;;;;17.42;100.00;99031.31;4936269;29;20476;-55
2022/05/24 01:04:19;;;;;;;1.40;0.93;;;;;;;17.33;100.00;99032.00;4936711;29;20488;-55
2022/05/24 01:06:49;;;;;;;0.40;0.20;;;;;;;17.38;100.00;99019.06;4936833;28;20456;-55
2022/05/24 01:09:23;;;;;;;0.40;0.20;;;;;;;17.34;100.00;99021.16;4936425;29;20921;-55
2022/05/24 01:11:54;;;;;;;0.50;0.40;;;;;;;17.46;100.00;99025.56;4936928;29;20452;-55
2022/05/24 01:14:23;;;;;;;0.40;0.20;;;;;;;17.49;100.00;99021.78;4936743;29;20523;-55
2022/05/24 01:16:52;;;;;;;0.40;0.20;;;;;;;17.45;100.00;99028.38;4936764;29;20453;-55
2022/05/24 01:19:33;;;;;;;0.50;0.47;;;;;;;17.37;100.00;99025.41;4936504;29;20507;-55
2022/05/24 01:22:29;;;;;;;0.50;0.40;;;;;;;17.43;100.00;99022.28;4924270;29;20484;-55
2022/05/24 01:25:04;;;;;;;0.43;0.40;;;;;;;17.54;100.00;99029.47;4936773;29;20448;-55
2022/05/24 01:27:31;;;;;;;0.40;0.20;;;;;;;17.51;100.00;99027.91;4936638;29;20479;-55
2022/05/24 01:29:58;;;;;;;0.40;0.20;;;;;;;17.55;100.00;99025.84;4936398;28;20476;-55
2022/05/24 01:37:56;;;;;;;0.50;0.30;;;;;;;17.69;100.00;99020.28;4936123;29;20836;-55
2022/05/24 01:40:22;;;;;;;0.40;0.30;;;;;;;17.83;100.00;99025.44;4936110;29;20487;-55
2022/05/24 01:42:49;;;;;;;0.40;0.20;;;;;;;17.65;100.00;99019.63;4935992;29;20491;-55
2022/05/24 01:45:26;;;;;;;0.40;0.30;;;;;;;17.59;100.00;99012.03;4936390;29;20504;-55
2022/05/24 01:47:59;;;;;;;0.77;0.70;;;;;;;17.48;100.00;98993.22;4936343;29;20472;-55
2022/05/24 01:50:28;;;;;;;0.40;0.20;;;;;;;17.50;100.00;99004.69;4936011;29;20484;-55
2022/05/24 01:52:59;;;;;;;0.40;0.30;;;;;;;17.38;100.00;98992.19;4935943;29;20452;-55
2022/05/24 01:55:32;;;;;;;0.57;0.40;;;;;;;17.21;100.00;98973.84;4936133;28;20456;-55
2022/05/24 01:58:05;;;;;;;0.40;0.20;;;;;;;17.05;100.00;98974.19;4936094;29;20525;-55
2022/05/24 02:00:31;;;;;;;0.53;0.47;;;;;;;17.05;100.00;98971.50;4935810;28;20519;-54
2022/05/24 02:02:58;;;;;;;0.60;0.50;;;;;;;16.97;100.00;98977.44;4935464;29;20527;-55
2022/05/24 02:05:35;;;;;;;0.50;0.47;;;;;;;16.74;100.00;98979.19;4935586;29;20452;-55
2022/05/24 02:08:08;;;;;;;0.40;0.20;;;;;;;16.70;100.00;98976.81;4935872;29;20476;-55
2022/05/24 02:10:55;;;;;;;0.60;0.60;;;;;;;16.81;100.00;98971.53;4935676;29;20443;-55
2022/05/24 02:13:30;;;;;;;0.40;0.20;;;;;;;16.70;100.00;98968.78;4935271;29;20519;-55
2022/05/24 02:16:02;;;;;;;0.40;0.20;;;;;;;16.60;100.00;98963.22;4935426;29;20452;-55
2022/05/24 02:18:30;;;;;;;0.40;0.30;;;;;;;16.54;100.00;98972.56;4935303;29;20567;-55
2022/05/24 02:20:57;;;;;;;0.40;0.30;;;;;;;16.43;100.00;98975.19;4935445;29;20821;-55
2022/05/24 02:23:23;;;;;;;0.60;0.50;;;;;;;16.21;100.00;98965.19;4935156;29;20492;-55
2022/05/24 02:25:58;;;;;;;1.57;1.53;;;;;;;16.08;100.00;98972.41;4935383;29;20460;-55
2022/05/24 02:28:30;;;;;;;0.50;0.40;;;;;;;15.97;100.00;98975.88;4935088;29;21044;-55
2022/05/24 02:31:05;;;;;;;0.40;0.30;;;;;;;15.80;100.00;98964.66;4935328;29;20468;-55
2022/05/24 02:33:33;;;;;;;0.40;0.20;;;;;;;15.73;100.00;98969.56;4935288;29;20444;-55
2022/05/24 02:36:00;;;;;;;0.63;0.63;;;;;;;15.85;100.00;98960.66;4935213;29;20460;-55
2022/05/24 02:38:26;;;;;;;0.40;0.20;;;;;;;15.97;100.00;98965.16;4935098;29;20480;-55
2022/05/24 02:43:38;;;;;;;0.40;0.20;;;;;;;16.10;100.00;98967.78;4935197;29;21015;-55
2022/05/24 02:46:06;;;;;;;0.40;0.27;;;;;;;16.23;100.00;98975.81;4935024;29;20480;-55
2022/05/24 02:48:33;;;;;;;0.80;0.67;;;;;;;16.28;100.00;98971.81;4935091;28;20508;-55
2022/05/24 02:51:00;;;;;;;0.40;0.40;;;;;;;16.39;100.00;98971.03;4934859;29;20802;-55
2022/05/24 02:53:27;;;;;;;0.40;0.20;;;;;;;16.50;100.00;98962.19;4934885;29;20479;-55
2022/05/24 02:55:53;;;;;;;0.40;0.20;;;;;;;16.51;100.00;98958.53;4965579;28;20475;-55
2022/05/24 02:58:20;;;;;;;0.40;0.30;;;;;;;16.47;100.00;98968.66;4934757;29;20985;-55
2022/05/24 03:00:46;;;;;;;0.53;0.53;;;;;;;16.37;100.00;98961.38;4934814;29;20484;-55
2022/05/24 03:03:13;;;;;;;0.40;0.20;;;;;;;16.46;100.00;98952.69;4934806;29;20562;-54
2022/05/24 03:05:40;;;;;;;0.40;0.30;;;;;;;16.37;100.00;98947.97;4934952;28;20475;-53
2022/05/24 03:10:52;;;;;;;0.40;0.30;;;;;;;16.32;100.00;98942.13;4935034;29;20465;-55
2022/05/24 03:16:14;;;;;;;0.40;0.30;;;;;;;16.05;100.00;98940.47;4934815;29;20503;-55
2022/05/24 03:18:42;;;;;;;0.83;0.70;;;;;;;16.01;100.00;98947.00;4934445;29;20993;-55
2022/05/24 03:21:09;;;;;;;1.60;1.53;;;;;;;15.96;100.00;98949.19;4947626;29;20487;-55
2022/05/24 03:23:36;;;;;;;0.50;0.43;;;;;;;16.10;100.00;98953.53;4934610;28;21001;-56
2022/05/24 03:26:04;;;;;;;0.70;0.40;;;;;;;16.15;100.00;98944.19;4935622;29;20869;-55
2022/05/24 03:28:31;;;;;;;1.27;1.23;;;;;;;16.34;100.00;98941.03;4938498;29;20480;-55
2022/05/24 03:30:57;;;;;;;0.43;0.37;;;;;;;16.43;100.00;98943.00;4969191;28;20539;-56
2022/05/24 03:33:25;;;;;;;5.10;2.87;;;;;;;16.51;100.00;98942.44;4938713;29;20487;-56
2022/05/24 03:35:51;;;;;;;0.40;0.30;;;;;;;16.47;100.00;98947.19;4938530;29;20455;-57
2022/05/24 03:38:18;;;;;;;2.40;2.30;;;;;;;16.52;100.00;98949.53;4938440;29;20515;-56
2022/05/24 03:40:45;;;;;;;0.40;0.20;;;;;;;16.51;100.00;98950.50;4938434;29;20515;-56
2022/05/24 03:43:14;;;;;;;0.40;0.40;;;;;;;16.58;100.00;98952.63;4937443;29;20481;-56
2022/05/24 03:45:41;;;;;;;0.40;0.20;;;;;;;16.65;100.00;98953.00;4937971;29;20460;-56
2022/05/24 03:48:13;;;;;;;0.40;0.30;;;;;;;16.74;100.00;98949.66;4938020;28;21000;-56
2022/05/24 03:50:40;;;;;;;0.50;0.40;;;;;;;16.74;100.00;98955.03;4938336;29;20456;-56
2022/05/24 03:53:06;;;;;;;0.50;0.30;;;;;;;16.82;100.00;98949.06;4937974;29;20456;-56
2022/05/24 03:55:33;;;;;;;0.70;0.70;;;;;;;17.02;100.00;98952.94;4938134;29;20452;-56
2022/05/24 03:58:00;;;;;;;0.40;0.20;;;;;;;16.85;100.00;98951.50;4937953;29;20476;-55
2022/05/24 04:00:37;;;;;;;0.40;0.20;;;;;;;16.85;100.00;98941.63;4945505;29;20456;-55
2022/05/24 04:03:05;;;;;;;12.37;3.53;;;;;;;17.02;100.00;98947.56;4938063;29;20470;-56
2022/05/24 04:05:32;;;;;;;0.40;0.30;;;;;;;16.88;100.00;98952.16;4938009;29;20454;-55
2022/05/24 04:08:01;;;;;;;0.40;0.20;;;;;;;16.85;100.00;98951.50;4937807;29;20476;-55
2022/05/24 04:10:29;;;;;;;0.50;0.40;;;;;;;16.94;100.00;98960.72;4937714;29;20452;-56
2022/05/24 04:12:57;;;;;;;0.40;0.20;;;;;;;16.97;100.00;98958.63;4936985;29;20519;-56
2022/05/24 04:15:24;;;;;;;0.40;0.20;;;;;;;17.07;100.00;98958.81;4937055;29;20483;-56
2022/05/24 04:17:52;;;;;;;0.40;0.30;;;;;;;16.97;100.00;98958.63;4949150;28;20461;-55
2022/05/24 04:20:21;;;;;;;3.50;1.13;;;;;;;16.92;100.00;98955.47;4943576;29;20451;-55
2022/05/24 04:22:49;;;;;;;0.40;0.20;;;;;;;17.01;100.00;98965.50;4942391;29;20458;-55
2022/05/24 04:25:16;;;;;;;0.40;0.20;;;;;;;17.11;100.00;98968.31;4937468;29;20487;-56
2022/05/24 04:27:43;;;;;;;0.50;0.50;;;;;;;17.07;100.00;98964.16;4937401;29;20582;-56
2022/05/24 04:30:11;;;;;;;0.50;0.33;;;;;;;17.12;100.00;98970.88;4937232;29;20455;-56
2022/05/24 04:32:37;;;;;;;0.60;0.60;;;;;;;17.24;100.00;98970.94;4937202;28;20464;-56
2022/05/24 04:35:05;;;;;;;0.40;0.20;;;;;;;17.38;100.00;98978.78;4937856;29;20863;-56
2022/05/24 04:37:31;;;;;;;0.40;0.20;;;;;;;17.51;100.00;98976.84;4967697;28;20452;-56
2022/05/24 04:39:58;;;;;;;0.40;0.20;;;;;;;17.42;100.00;98975.75;4936914;29;20482;-56
2022/05/24 04:42:25;;;;;;;0.40;0.20;;;;;;;17.60;100.00;98977.97;4937208;29;20452;-55
2022/05/24 04:44:54;;;;;;;0.40;0.20;;;;;;;17.87;100.00;98981.19;4936988;29;20523;-56
2022/05/24 04:47:23;;;;;;;0.40;0.20;;;;;;;17.72;100.00;98987.78;4937285;29;20468;-55
2022/05/24 04:49:55;;;;;;;0.60;0.60;;;;;;;17.63;100.00;98999.22;4936701;29;20472;-55
2022/05/24 04:52:24;;;;;;;0.40;0.20;;;;;;;17.57;100.00;99003.25;4936983;29;20483;-56
2022/05/24 04:54:52;;;;;;;0.40;0.20;;;;;;;17.51;100.00;99005.53;4936883;29;20868;-55
2022/05/24 04:57:19;;;;;;;1.60;1.50;;;;;;;17.65;100.00;99010.69;4936830;29;20838;-56
2022/05/24 04:59:47;;;;;;;0.40;0.20;;;;;;;17.46;100.00;99006.75;4936691;29;20962;-56
2022/05/24 05:02:17;;;;;;;0.40;0.20;;;;;;;17.25;100.00;99005.72;4936792;29;20547;-56
2022/05/24 05:04:44;;;;;;;0.87;0.87;;;;;;;17.30;100.00;99008.06;4936544;29;20503;-56
2022/05/24 05:07:12;;;;;;;0.40;0.20;;;;;;;17.13;100.00;99004.84;4967047;28;20501;-55
2022/05/24 05:09:39;;;;;;;0.40;0.20;;;;;;;17.28;100.00;99018.94;4948310;28;20511;-56
2022/05/24 05:12:11;;;;;;;0.50;0.50;;;;;;;17.20;100.00;99033.91;4935647;29;20950;-56
2022/05/24 05:14:39;;;;;;;0.40;0.30;;;;;;;17.12;100.00;99040.72;4936668;29;20452;-55
2022/05/24 05:17:06;;;;;;;0.40;0.30;;;;;;;17.20;100.00;99050.88;4923825;29;20464;-56
2022/05/24 05:19:32;;;;;;;0.50;0.50;;;;;;;17.17;100.00;99046.59;4936560;29;20480;-56
2022/05/24 05:22:02;;;;;;;0.40;0.20;;;;;;;17.32;100.00;99054.47;4948810;28;20456;-56
2022/05/24 05:24:29;;;;;;;0.40;0.20;;;;;;;17.70;100.00;99089.19;4936466;29;20500;-56
2022/05/24 05:26:56;;;;;;;0.40;0.20;;;;;;;17.54;100.00;99099.34;4936307;29;20515;-55
2022/05/24 05:32:08;;;;;;;0.40;0.20;;;;;;;16.97;100.00;99083.97;4935986;29;21029;-56
2022/05/24 05:34:35;;;;;;;0.40;0.20;;;;;;;17.08;100.00;99092.94;4967159;28;20456;-56
2022/05/24 05:37:05;;;;;;;0.40;0.20;;;;;;;16.80;100.00;99094.13;4936543;29;20452;-55
2022/05/24 05:39:34;;;;;;;0.40;0.20;;;;;;;16.40;100.00;99097.94;4936596;29;20539;-56
2022/05/24 05:42:01;;;;;;;1.07;0.97;;;;;;;16.35;100.00;99102.78;4936225;29;20479;-54
2022/05/24 05:44:29;;;;;;;0.40;0.20;;;;;;;16.36;100.00;99096.47;4935587;29;20488;-55
2022/05/24 05:46:56;;;;;;;0.40;0.20;;;;;;;16.30;100.00;99093.22;4936292;29;20456;-56
2022/05/24 05:49:23;;;;;;;0.40;0.20;;;;;;;16.73;100.00;99078.59;4935508;29;20480;-55
2022/05/24 05:51:50;;;;;;;0.40;0.20;;;;;;;16.56;100.00;99086.00;4935907;29;20561;-55
2022/05/24 05:54:16;;;;;;;0.40;0.20;;;;;;;16.48;100.00;99095.59;4935815;29;20523;-55
2022/05/24 05:56:43;;;;;;;0.40;0.20;;;;;;;16.67;100.00;99087.94;4936024;29;20511;-55
2022/05/24 05:59:09;;;;;;;0.47;0.40;;;;;;;17.11;100.00;99094.53;4935516;29;21086;-57
2022/05/24 06:01:36;;;;;;;0.40;0.20;;;;;;;16.82;100.00;99083.28;4935707;29;20882;-55
2022/05/24 06:04:02;;;;;;;0.40;0.20;;;;;;;16.81;100.00;99093.16;4935575;28;21017;-54
2022/05/24 06:06:34;;;;;;;0.40;0.20;;;;;;;17.02;100.00;99100.59;4935622;29;20461;-54
2022/05/24 06:09:00;;;;;;;0.40;0.30;;;;;;;17.43;100.00;99108.25;4936005;29;20818;-54
2022/05/24 06:11:27;;;;;;;0.40;0.30;;;;;;;18.11;100.00;99115.56;4966480;28;20449;-54
2022/05/24 06:13:54;;;;;;;0.40;0.20;;;;;;;18.41;100.00;99119.47;4935736;29;20456;-56
2022/05/24 06:16:21;;;;;;;0.40;0.20;;;;;;;18.39;100.00;99132.19;4966122;28;20448;-57
2022/05/24 06:18:48;;;;;;;0.40;0.20;;;;;;;18.63;100.00;99125.72;4935352;28;20476;-57
2022/05/24 06:21:15;;;;;;;0.40;0.20;;;;;;;18.82;100.00;99138.56;4948394;29;20479;-56
2022/05/24 06:23:42;;;;;;;0.40;0.20;;;;;;;18.86;100.00;99139.19;4935735;28;20507;-57
2022/05/24 06:26:08;;;;;;;0.40;0.20;;;;;;;18.76;100.00;99154.34;4934927;29;20994;-57
2022/05/24 06:28:35;;;;;;;0.40;0.20;;;;;;;18.84;100.00;99163.53;4935263;29;20514;-56
2022/05/24 06:31:02;;;;;;;0.40;0.20;;;;;;;18.95;100.00;99173.44;4935283;29;20464;-57
2022/05/24 06:33:29;;;;;;;0.40;0.20;;;;;;;18.36;100.00;99176.34;4935297;29;20460;-56
2022/05/24 06:35:56;;;;;;;0.40;0.20;;;;;;;18.34;100.00;99184.53;4935402;29;20452;-56
2022/05/24 06:38:23;;;;;;;0.40;0.20;;;;;;;18.27;100.00;99198.59;4935016;29;21043;-57
2022/05/24 06:40:49;;;;;;;0.40;0.20;;;;;;;18.10;100.00;99207.13;4935288;29;20878;-56
2022/05/24 06:43:16;;;;;;;0.40;0.20;;;;;;;18.22;100.00;99206.16;4935194;29;21023;-56
2022/05/24 06:45:43;;;;;;;0.70;0.70;;;;;;;17.96;100.00;99210.88;4934927;29;21068;-56
2022/05/24 06:48:10;;;;;;;0.40;0.20;;;;;;;18.05;100.00;99210.13;4934717;29;21061;-56
2022/05/24 06:50:39;;;;;;;0.40;0.20;;;;;;;17.66;100.00;99211.28;4935110;29;20452;-56
2022/05/24 06:53:06;;;;;;;0.40;0.20;;;;;;;18.25;100.00;99211.31;4935133;29;20515;-56
2022/05/24 06:55:33;;;;;;;0.40;0.30;;;;;;;18.08;100.00;99209.91;4935209;28;21039;-56
2022/05/24 06:57:59;;;;;;;0.40;0.20;;;;;;;18.49;100.00;99213.91;4934795;29;20503;-54
2022/05/24 07:03:13;;;;;;;0.40;0.27;;;;;;;18.09;100.00;99208.06;4934959;29;20455;-55
2022/05/24 07:05:41;;;;;;;1.73;1.13;;;;;;;18.21;100.00;99216.06;4934634;29;20499;-55
2022/05/24 07:08:09;;;;;;;0.40;0.20;;;;;;;18.24;100.00;99210.47;4949637;28;20479;-55
2022/05/24 07:10:36;;;;;;;0.40;0.20;;;;;;;18.47;100.00;99213.16;4935121;29;20479;-55
2022/05/24 07:13:06;;;;;;;0.40;0.20;;;;;;;18.72;98.55;99231.84;4935187;29;20464;-55
2022/05/24 07:15:33;;;;;;;0.40;0.20;;;;;;;18.05;99.80;99229.81;4934649;29;20456;-55
2022/05/24 07:18:01;;;;;;;0.60;0.53;;;;;;;18.40;100.00;99231.66;4934545;29;20476;-55
2022/05/24 07:20:29;;;;;;;0.40;0.20;;;;;;;18.34;99.52;99229.41;4942380;29;20801;-54
2022/05/24 07:23:09;;;;;;;0.40;0.20;;;;;;;18.61;100.00;99234.47;4939736;28;20978;-55
2022/05/24 07:25:39;;;;;;;0.40;0.20;;;;;;;18.94;98.48;99239.94;4934561;29;20551;-55
2022/05/24 07:28:07;;;;;;;0.40;0.20;;;;;;;19.38;92.86;99231.91;4934544;29;20519;-55
2022/05/24 07:30:35;;;;;;;0.40;0.20;;;;;;;19.58;92.45;99230.28;4934332;28;21033;-55
2022/05/24 07:33:01;;;;;;;0.40;0.20;;;;;;;19.15;91.37;99233.78;4934689;29;20475;-55
2022/05/24 07:35:28;;;;;;;0.40;0.20;;;;;;;19.04;92.75;99242.72;4934841;29;20519;-55
2022/05/24 07:37:55;;;;;;;0.40;0.20;;;;;;;18.50;90.25;99259.56;4934396;29;20471;-56
2022/05/24 07:46:00;;;;;;;0.40;0.20;;;;;;;19.87;88.40;99254.84;4934574;29;20538;-56
2022/05/24 07:48:26;;;;;;;0.70;0.67;;;;;;;19.75;87.03;99252.22;4934582;28;20520;-56
2022/05/24 07:50:53;;;;;;;0.40;0.20;;;;;;;20.17;84.78;99265.78;4934643;29;20487;-56
2022/05/24 07:53:20;;;;;;;0.40;0.20;;;;;;;20.29;80.62;99271.97;4934725;29;20456;-55
2022/05/24 07:55:46;;;;;;;0.40;0.20;;;;;;;20.06;82.44;99273.91;4934671;29;20455;-56
2022/05/24 07:58:14;;;;;;;0.40;0.20;;;;;;;19.93;81.19;99275.94;4935583;29;20527;-53
2022/05/24 08:00:41;;;;;;;0.40;0.20;;;;;;;19.72;80.70;99290.19;4934245;29;20463;-54
2022/05/24 08:03:08;;;;;;;0.40;0.30;;;;;;;19.96;81.07;99290.00;4934741;29;20455;-53
2022/05/24 08:05:36;;;;;;;0.40;0.20;;;;;;;20.52;79.89;99300.59;4934282;29;20488;-53
2022/05/24 08:08:04;;;;;;;0.40;0.20;;;;;;;20.41;79.55;99295.19;4934130;29;20472;-53
2022/05/24 08:10:32;;;;;;;0.40;0.20;;;;;;;19.96;81.30;99311.59;4934501;29;20515;-53
2022/05/24 08:13:04;;;;;;;0.40;0.20;;;;;;;20.61;80.06;99307.91;4936991;29;20448;-54
2022/05/24 08:15:31;;;;;;;0.40;0.20;;;;;;;20.77;77.45;99326.34;4937578;29;20934;-54
2022/05/24 08:17:57;;;;;;;0.40;0.20;;;;;;;20.61;76.57;99326.81;4937946;28;20531;-53
2022/05/24 08:20:25;;;;;;;0.40;0.20;;;;;;;20.32;75.73;99331.94;4937721;29;20452;-53
2022/05/24 08:22:51;;;;;;;0.40;0.20;;;;;;;19.91;76.97;99340.78;4937755;29;20451;-53
2022/05/24 08:25:18;;;;;;;0.40;0.20;;;;;;;20.47;76.03;99353.28;4937432;29;20519;-54
2022/05/24 08:27:44;;;;;;;0.40;0.20;;;;;;;20.56;77.60;99352.47;4937502;29;20496;-53
2022/05/24 08:30:15;;;;;;;0.40;0.20;;;;;;;20.79;75.59;99340.56;4937781;29;20531;-53
2022/05/24 08:32:42;;;;;;;0.40;0.20;;;;;;;20.22;76.88;99341.78;4937794;29;20441;-53
2022/05/24 08:35:11;;;;;;;0.40;0.20;;;;;;;19.93;77.96;99341.53;4937160;29;21015;-53
2022/05/24 08:37:40;;;;;;;0.40;0.20;;;;;;;20.20;79.08;99343.78;4937475;29;20463;-53
2022/05/24 08:40:07;;;;;;;0.40;0.20;;;;;;;20.45;78.43;99347.16;4926934;29;20507;-53
2022/05/24 08:42:34;;;;;;;0.40;0.20;;;;;;;20.90;74.45;99354.00;4937726;29;20502;-53
2022/05/24 08:48:26;;;;;;;0.40;0.20;;;;;;;20.84;76.38;99351.84;4937384;29;20471;-53
2022/05/24 08:51:10;;;;;;;0.40;0.20;;;;;;;20.52;76.95;99351.88;4936106;29;20551;-53
2022/05/24 08:53:42;;;;;;;0.40;0.20;;;;;;;20.46;76.35;99355.13;4937561;29;20475;-53
2022/05/24 08:56:18;;;;;;;0.40;0.20;;;;;;;21.00;73.05;99354.09;4937036;29;20512;-52
2022/05/24 08:58:51;;;;;;;0.40;0.20;;;;;;;20.86;72.53;99366.09;4937065;29;20530;-52
2022/05/24 09:01:29;;;;;;;0.40;0.20;;;;;;;21.06;73.10;99367.06;4937250;29;20546;-53
2022/05/24 09:03:56;;;;;;;0.40;0.20;;;;;;;21.08;74.06;99367.78;4935965;29;20506;-53
2022/05/24 09:06:31;;;;;;;0.40;0.20;;;;;;;21.43;72.58;99364.72;4936825;29;21052;-53
2022/05/24 09:09:19;;;;;;;0.40;0.20;;;;;;;20.80;73.56;99354.94;4936587;29;20472;-53
2022/05/24 09:11:52;;;;;;;0.40;0.20;;;;;;;20.79;73.89;99364.88;4937024;29;20504;-53
2022/05/24 09:14:27;;;;;;;0.40;0.20;;;;;;;19.97;75.77;99366.41;4937010;29;20448;-53
2022/05/24 09:17:04;;;;;;;0.40;0.20;;;;;;;20.66;74.14;99369.63;4936629;29;20475;-53
2022/05/24 09:19:38;;;;;;;0.40;0.20;;;;;;;20.04;77.30;99373.03;4936699;29;20468;-53
2022/05/24 09:22:07;;;;;;;0.40;0.20;;;;;;;19.85;77.07;99375.50;4925127;29;21005;-53
2022/05/24 09:24:40;;;;;;;0.40;0.20;;;;;;;19.97;76.51;99378.03;4935658;29;20476;-53
2022/05/24 09:27:22;;;;;;;0.50;0.30;;;;;;;20.17;77.56;99376.41;4936579;29;20835;-53
2022/05/24 09:30:24;;;;;;;0.40;0.20;;;;;;;20.31;77.92;99388.78;4936572;29;20476;-52
2022/05/24 09:32:50;;;;;;;0.40;0.20;;;;;;;20.61;74.38;99380.81;4929811;29;20503;-53
2022/05/24 09:35:21;;;;;;;0.40;0.20;;;;;;;20.18;73.18;99394.31;4936637;29;20448;-53
2022/05/24 09:38:01;;;;;;;0.40;0.20;;;;;;;20.11;71.29;99396.66;4950702;28;20937;-53
2022/05/24 09:40:28;;;;;;;0.40;0.20;;;;;;;20.68;68.23;99392.81;4936397;29;20430;-53
2022/05/24 09:42:55;;;;;;;0.40;0.20;;;;;;;20.25;67.06;99387.41;4936401;29;20483;-53
2022/05/24 09:45:26;;;;;;;0.40;0.20;;;;;;;19.90;69.03;99376.84;4936294;29;20504;-53
2022/05/24 09:47:58;;;;;;;0.40;0.20;;;;;;;19.94;67.82;99383.69;4936231;29;20456;-53
2022/05/24 09:50:39;;;;;;;0.50;0.40;;;;;;;20.20;64.79;99388.78;4936193;29;20454;-52
2022/05/24 09:53:17;;;;;;;0.40;0.30;;;;;;;20.61;65.47;99396.16;4930548;29;20543;-53
2022/05/24 09:56:28;;;;;;;0.40;0.20;;;;;;;20.47;63.75;99396.47;4934077;29;20439;-53
2022/05/24 09:59:05;;;;;;;0.40;0.20;;;;;;;21.10;65.48;99397.38;4926158;29;20559;-53
2022/05/24 10:01:40;;;;;;;0.40;0.20;;;;;;;20.97;64.72;99397.59;4935987;29;20930;-53
2022/05/24 10:04:23;;;;;;;0.40;0.20;;;;;;;20.73;64.76;99403.25;4935848;29;20524;-52
2022/05/24 10:06:53;;;;;;;0.40;0.20;;;;;;;20.83;63.21;99414.09;4935562;29;20828;-52
2022/05/24 10:09:19;;;;;;;0.40;0.20;;;;;;;21.27;62.36;99404.94;4935787;29;20832;-53
2022/05/24 10:12:10;;;;;;;0.53;0.53;;;;;;;21.12;64.28;99411.63;4935886;29;20499;-53
2022/05/24 10:14:47;;;;;;;0.40;0.20;;;;;;;21.35;63.17;99417.75;4935995;29;20482;-53
2022/05/24 10:17:32;;;;;;;0.40;0.20;;;;;;;21.30;63.20;99426.28;4923076;29;20484;-53
2022/05/24 10:20:16;;;;;;;0.40;0.20;;;;;;;20.90;62.98;99426.97;4939408;29;21048;-53
2022/05/24 10:22:54;;;;;;;0.40;0.20;;;;;;;21.19;61.28;99434.41;4955058;29;20478;-53
2022/05/24 10:25:30;;;;;;;0.40;0.20;;;;;;;20.27;63.56;99446.66;4935702;29;20543;-52
2022/05/24 10:28:15;;;;;;;0.43;0.30;;;;;;;20.75;63.48;99443.63;4935172;29;20823;-52
2022/05/24 10:31:02;;;;;;;0.40;0.20;;;;;;;21.07;60.34;99448.97;4935318;29;20468;-53
2022/05/24 10:39:29;;;;;;;0.40;0.20;;;;;;;21.65;58.92;99446.66;4934993;29;20960;-53
2022/05/24 10:42:08;;;;;;;0.40;0.20;;;;;;;21.26;60.84;99458.13;4946837;29;20449;-53
2022/05/24 10:44:50;;;;;;;0.40;0.20;;;;;;;20.62;66.40;99452.75;4935004;29;20444;-52
2022/05/24 10:47:42;;;;;;;0.40;0.20;;;;;;;19.94;69.55;99453.84;4935342;29;20444;-53
2022/05/24 10:50:16;;;;;;;0.40;0.20;;;;;;;20.01;67.45;99451.50;4935116;29;20452;-53
2022/05/24 10:52:57;;;;;;;0.40;0.20;;;;;;;19.77;68.69;99449.81;4934771;29;20515;-52
2022/05/24 10:55:33;;;;;;;0.70;0.70;;;;;;;19.74;68.52;99450.06;4935253;29;20440;-53
2022/05/24 10:58:04;;;;;;;0.40;0.20;;;;;;;19.59;68.46;99453.09;4935040;29;20531;-54
2022/05/24 11:00:55;;;;;;;0.40;0.20;;;;;;;19.92;68.35;99460.34;4934839;29;20452;-53
2022/05/24 11:03:32;;;;;;;0.40;0.20;;;;;;;20.13;64.08;99453.19;4935026;29;20985;-53
2022/05/24 11:06:04;;;;;;;0.67;0.67;;;;;;;20.50;62.81;99453.75;4935024;29;21011;-53
2022/05/24 11:08:34;;;;;;;0.40;0.30;;;;;;;20.74;61.51;99463.53;4934650;29;20536;-53
2022/05/24 11:11:29;;;;;;;0.40;0.20;;;;;;;21.05;60.41;99470.75;4934957;29;20879;-53
2022/05/24 11:13:56;;;;;;;0.40;0.20;;;;;;;20.96;60.55;99458.00;4934304;28;21107;-53
2022/05/24 11:16:39;;;;;;;0.40;0.20;;;;;;;21.44;60.23;99466.50;4934629;29;20515;-53
2022/05/24 11:19:17;;;;;;;0.40;0.20;;;;;;;21.65;59.61;99458.34;4935081;29;20500;-53
2022/05/24 11:21:52;;;;;;;0.40;0.20;;;;;;;22.04;57.96;99453.09;4947594;29;20491;-53
2022/05/24 11:24:42;;;;;;;0.40;0.20;;;;;;;21.93;56.64;99461.31;4934870;29;20448;-53
2022/05/24 11:27:13;;;;;;;0.40;0.20;;;;;;;21.96;56.85;99456.50;4934703;29;20515;-53
2022/05/24 11:29:48;;;;;;;0.40;0.20;;;;;;;21.54;55.71;99458.44;4934902;29;20892;-53
2022/05/24 11:33:07;;;;;;;0.40;0.30;;;;;;;21.76;56.16;99457.41;4934503;28;20934;-53
2022/05/24 11:35:54;;;;;;;0.40;0.20;;;;;;;22.03;57.00;99451.38;4933475;29;20503;-55
2022/05/24 11:38:21;;;;;;;0.40;0.20;;;;;;;21.57;55.75;99450.06;4934485;29;20476;-52
2022/05/24 11:40:48;;;;;;;0.40;0.20;;;;;;;21.07;53.20;99457.94;4934479;29;20456;-53
2022/05/24 11:43:36;;;;;;;0.40;0.20;;;;;;;21.12;54.38;99454.88;4934579;29;20456;-53
2022/05/24 11:46:06;;;;;;;0.40;0.20;;;;;;;20.89;55.86;99464.94;4934647;29;20496;-52
2022/05/24 11:48:44;;;;;;;0.40;0.20;;;;;;;21.11;57.38;99467.53;4936764;29;20471;-53
2022/05/24 11:51:36;;;;;;;0.50;0.40;;;;;;;21.19;58.12;99461.44;4925678;29;20475;-53
2022/05/24 11:54:06;;;;;;;0.40;0.20;;;;;;;21.29;57.38;99467.81;4938420;29;20884;-53
2022/05/24 11:56:34;;;;;;;0.40;0.20;;;;;;;21.00;57.71;99457.63;4938787;28;20452;-53
2022/05/24 11:59:06;;;;;;;0.40;0.20;;;;;;;21.55;57.94;99465.56;4937884;29;20543;-53
2022/05/24 12:01:37;;;;;;;0.40;0.20;;;;;;;22.01;56.93;99473.19;4938015;28;20504;-53
2022/05/24 12:10:21;;;;;;;0.40;0.20;;;;;;;22.69;52.81;99481.50;4935621;29;20925;-53
2022/05/24 12:13:09;;;;;;;0.40;0.27;;;;;;;22.26;51.63;99480.00;4935784;29;20962;-53
2022/05/24 12:15:40;;;;;;;0.40;0.20;;;;;;;22.36;52.05;99471.91;4936981;29;20452;-53
2022/05/24 12:18:07;;;;;;;0.40;0.30;;;;;;;22.55;52.04;99477.34;4937599;29;20476;-53
2022/05/24 12:20:33;;;;;;;0.40;0.20;;;;;;;22.37;51.54;99485.31;4945723;29;20930;-53
2022/05/24 12:23:34;;;;;;;0.43;0.27;;;;;;;22.26;51.95;99492.69;4942647;28;20451;-53
2022/05/24 12:26:13;;;;;;;0.40;0.20;;;;;;;22.24;52.86;99487.41;4937605;29;21006;-53
2022/05/24 12:28:49;;;;;;;0.40;0.20;;;;;;;22.39;52.91;99488.72;4949083;28;20472;-53